Time;durP1;ratioP1;P1;durP2;ratioP2;P2;SDS_P1;SDS_P2;PMS_P1;PMS_P2;Temp;Humidity;BMP_temperature;BMP_pressure;BME280_temperature;BME280_humidity;BME280_pressure;Samples;Min_cycle;Max_cycle;Signal;HPM_P1;HPM_P2
2022/12/19 00:02:08;;;;;;;29.17;17.43;;;0.90;99.90;;;;;;4861426;29;20057;-71
2022/12/19 00:04:34;;;;;;;30.02;17.98;;;0.90;99.90;;;;;;4859215;29;20053;-71
2022/12/19 00:06:59;;;;;;;29.98;18.38;;;1.00;99.90;;;;;;4859519;29;20053;-71
2022/12/19 00:09:25;;;;;;;24.73;15.93;;;1.00;99.90;;;;;;4857889;29;20043;-71
2022/12/19 00:11:51;;;;;;;29.20;17.95;;;1.00;99.90;;;;;;4844694;29;20278;-71
2022/12/19 00:14:17;;;;;;;28.77;17.00;;;1.00;99.90;;;;;;4832543;29;20057;-71
2022/12/19 00:16:44;;;;;;;27.30;16.17;;;1.00;99.90;;;;;;4841991;29;20042;-71
2022/12/19 00:19:10;;;;;;;30.25;17.90;;;1.00;99.90;;;;;;4856861;29;20062;-71
2022/12/19 00:21:37;;;;;;;28.83;17.80;;;1.10;99.90;;;;;;4844975;29;20064;-71
2022/12/19 00:24:04;;;;;;;27.95;17.80;;;1.10;99.90;;;;;;4859258;29;20042;-71
2022/12/19 00:26:32;;;;;;;28.00;17.38;;;1.10;99.90;;;;;;4858539;29;20605;-71
2022/12/19 00:29:01;;;;;;;29.55;17.55;;;1.20;99.90;;;;;;4857125;29;20113;-71
2022/12/19 00:31:29;;;;;;;27.85;17.10;;;1.20;99.90;;;;;;4859266;29;20058;-71
2022/12/19 00:33:56;;;;;;;29.30;18.45;;;1.20;99.90;;;;;;4859490;29;20057;-71
2022/12/19 00:36:24;;;;;;;32.58;18.73;;;1.20;99.90;;;;;;4860870;29;20048;-71
2022/12/19 00:38:51;;;;;;;29.17;17.48;;;1.20;99.90;;;;;;4857436;29;20049;-71
2022/12/19 00:41:21;;;;;;;26.92;16.55;;;1.20;99.90;;;;;;4859033;29;20486;-71
2022/12/19 00:43:55;;;;;;;27.83;17.63;;;1.30;99.90;;;;;;4858755;29;20084;-71
2022/12/19 00:46:22;;;;;;;29.38;18.13;;;1.30;99.90;;;;;;4859688;29;20045;-71
2022/12/19 00:48:48;;;;;;;31.05;18.70;;;1.30;99.90;;;;;;4857844;29;20069;-71
2022/12/19 00:51:16;;;;;;;28.00;17.80;;;1.40;99.90;;;;;;4860953;29;20052;-71
2022/12/19 00:53:46;;;;;;;30.20;17.25;;;1.40;99.90;;;;;;4858984;29;20046;-71
2022/12/19 00:56:18;;;;;;;28.42;16.63;;;1.40;99.90;;;;;;4859916;29;20041;-71
2022/12/19 00:58:44;;;;;;;29.48;18.23;;;1.40;99.90;;;;;;4858264;29;20149;-72
2022/12/19 01:01:20;;;;;;;28.98;17.40;;;1.40;99.90;;;;;;4858872;29;20366;-72
2022/12/19 01:03:46;;;;;;;28.48;18.05;;;1.40;99.90;;;;;;4858673;29;20778;-71
2022/12/19 01:06:13;;;;;;;29.65;17.77;;;1.50;99.90;;;;;;4858795;29;20059;-72
2022/12/19 01:08:38;;;;;;;31.77;18.85;;;1.50;99.90;;;;;;4857873;29;20497;-72
2022/12/19 01:11:05;;;;;;;29.67;17.73;;;1.50;99.90;;;;;;4858228;29;20046;-72
2022/12/19 01:13:31;;;;;;;;;;;1.50;99.90;;;;;;4859373;29;20041;-72
2022/12/19 01:16:06;;;;;;;29.08;17.23;;;1.60;99.90;;;;;;4858835;29;20015;-72
2022/12/19 01:18:32;;;;;;;27.15;16.25;;;1.60;99.90;;;;;;4840902;29;20095;-72
2022/12/19 01:21:04;;;;;;;29.38;17.77;;;1.60;99.90;;;;;;4858919;29;20049;-72
2022/12/19 01:23:30;;;;;;;30.77;18.00;;;1.60;99.90;;;;;;4862134;29;20033;-76
2022/12/19 01:25:56;;;;;;;32.33;18.88;;;1.70;99.90;;;;;;4860638;29;20114;-76
2022/12/19 01:28:23;;;;;;;;;;;1.70;99.90;;;;;;4859155;29;20675;-77
2022/12/19 01:30:49;;;;;;;29.60;18.00;;;1.70;99.90;;;;;;4853382;29;19924;-77
2022/12/19 01:33:16;;;;;;;;;;;1.80;99.90;;;;;;4856625;29;20053;-77
2022/12/19 01:35:44;;;;;;;28.40;17.20;;;1.80;99.90;;;;;;4852240;29;19920;-76
2022/12/19 01:38:15;;;;;;;28.60;17.77;;;1.80;99.90;;;;;;4859584;29;20061;-76
2022/12/19 01:40:48;;;;;;;27.58;16.85;;;1.80;99.90;;;;;;4855224;29;20481;-77
2022/12/19 01:43:16;;;;;;;29.35;17.30;;;1.80;99.90;;;;;;4859438;29;20071;-76
2022/12/19 01:45:42;;;;;;;29.45;17.63;;;1.80;99.90;;;;;;4837228;29;20079;-77
2022/12/19 01:48:21;;;;;;;28.75;17.85;;;1.80;99.90;;;;;;4842985;29;20102;-76
2022/12/19 01:51:24;;;;;;;27.17;16.70;;;1.90;99.90;;;;;;4853917;29;20041;-77
2022/12/19 01:53:57;;;;;;;29.38;16.48;;;1.90;99.90;;;;;;4795129;29;20460;-77
2022/12/19 01:56:28;;;;;;;26.77;17.05;;;2.00;99.90;;;;;;4857902;29;20052;-77
2022/12/19 01:58:57;;;;;;;29.55;17.60;;;2.00;99.90;;;;;;4857666;29;20053;-76
2022/12/19 02:01:24;;;;;;;30.40;16.92;;;2.00;99.90;;;;;;4856633;29;20049;-76
2022/12/19 02:03:51;;;;;;;28.42;17.75;;;2.00;99.90;;;;;;4859654;29;20045;-77
2022/12/19 02:06:18;;;;;;;30.48;18.45;;;2.00;99.90;;;;;;4856240;29;20049;-77
2022/12/19 02:08:45;;;;;;;;;;;2.00;99.90;;;;;;4860361;29;20113;-77
2022/12/19 02:11:10;;;;;;;30.27;16.77;;;2.00;99.90;;;;;;4854179;29;19928;-77
2022/12/19 02:13:36;;;;;;;28.73;16.90;;;2.00;99.90;;;;;;4844093;29;20055;-76
2022/12/19 02:16:13;;;;;;;30.80;18.20;;;2.00;99.90;;;;;;4859544;29;20562;-77
2022/12/19 02:19:00;;;;;;;28.20;17.30;;;2.00;99.90;;;;;;4845126;29;20059;-76
2022/12/19 02:21:26;;;;;;;27.17;17.20;;;2.00;99.90;;;;;;4856124;29;20084;-76
2022/12/19 02:24:10;;;;;;;26.80;17.60;;;2.00;99.90;;;;;;4859961;29;20076;-76
2022/12/19 02:27:08;;;;;;;33.78;18.38;;;2.00;99.90;;;;;;4858408;29;20093;-76
2022/12/19 02:30:09;;;;;;;29.63;17.88;;;1.90;99.90;;;;;;4842481;29;20050;-76
2022/12/19 02:32:48;;;;;;;28.08;17.42;;;1.90;99.90;;;;;;4844727;29;20053;-75
2022/12/19 02:35:53;;;;;;;29.27;17.20;;;1.90;99.90;;;;;;4855412;29;20446;-76
2022/12/19 02:38:47;;;;;;;28.00;17.98;;;1.90;99.90;;;;;;4857813;29;20091;-72
2022/12/19 02:41:25;;;;;;;28.75;17.73;;;1.90;99.90;;;;;;4849846;29;20554;-72
2022/12/19 02:43:54;;;;;;;32.47;17.42;;;1.90;99.90;;;;;;4843136;29;20052;-72
2022/12/19 02:46:23;;;;;;;28.02;17.42;;;1.90;99.90;;;;;;4832676;29;20557;-72
2022/12/19 02:48:49;;;;;;;31.77;18.25;;;1.90;99.90;;;;;;4857183;29;20132;-72
2022/12/19 02:51:15;;;;;;;29.83;18.25;;;1.90;99.90;;;;;;4830580;29;20118;-72
2022/12/19 02:53:41;;;;;;;29.30;17.05;;;2.00;99.90;;;;;;4838197;29;20049;-72
2022/12/19 02:56:19;;;;;;;29.20;16.95;;;2.00;99.90;;;;;;4840889;29;20056;-72
2022/12/19 02:59:05;;;;;;;30.70;18.70;;;2.00;99.90;;;;;;4858103;29;20069;-73
2022/12/19 03:01:50;;;;;;;28.83;18.38;;;2.00;99.90;;;;;;4831023;29;20140;-73
2022/12/19 03:04:22;;;;;;;29.40;17.52;;;2.00;99.90;;;;;;4840475;29;20093;-72
2022/12/19 03:06:51;;;;;;;30.15;19.02;;;2.10;99.90;;;;;;4840498;29;20137;-73
2022/12/19 03:09:19;;;;;;;29.45;18.90;;;2.10;99.90;;;;;;4856106;29;20433;-72
2022/12/19 03:11:48;;;;;;;29.05;18.67;;;2.10;99.90;;;;;;4837166;29;20498;-72
2022/12/19 03:14:18;;;;;;;30.02;18.17;;;2.20;99.90;;;;;;4857546;29;20392;-72
2022/12/19 03:16:44;;;;;;;27.15;17.05;;;2.10;99.90;;;;;;4857085;29;20108;-72
2022/12/19 03:19:13;;;;;;;29.20;18.45;;;2.20;99.90;;;;;;4842554;29;20057;-72
2022/12/19 03:21:42;;;;;;;25.98;16.80;;;2.10;99.90;;;;;;4855340;29;20106;-73
2022/12/19 03:24:10;;;;;;;26.38;17.52;;;2.20;99.90;;;;;;4856259;29;20057;-72
2022/12/19 03:26:53;;;;;;;26.10;16.80;;;2.20;99.90;;;;;;4856893;29;20053;-72
2022/12/19 03:29:21;;;;;;;29.67;19.17;;;2.20;99.90;;;;;;4857264;29;20494;-72
2022/12/19 03:31:48;;;;;;;29.13;17.70;;;2.20;99.90;;;;;;4836750;29;20379;-72
2022/12/19 03:34:28;;;;;;;26.77;17.05;;;2.30;99.90;;;;;;4855553;29;20390;-73
2022/12/19 03:36:58;;;;;;;29.15;17.08;;;2.30;99.90;;;;;;4856675;29;20088;-72
2022/12/19 03:39:25;;;;;;;28.05;18.25;;;2.30;99.90;;;;;;4856608;29;20068;-73
2022/12/19 03:44:40;;;;;;;31.75;19.63;;;2.30;99.90;;;;;;4845897;29;20409;-73
2022/12/19 03:47:14;;;;;;;27.70;18.67;;;2.30;99.90;;;;;;4856341;29;20102;-73
2022/12/19 03:49:40;;;;;;;30.17;19.08;;;2.40;99.90;;;;;;4856069;29;20060;-73
2022/12/19 03:52:15;;;;;;;26.10;17.08;;;2.40;99.90;;;;;;4855221;29;20041;-72
2022/12/19 03:54:49;;;;;;;27.10;17.70;;;2.30;99.90;;;;;;4857080;29;20053;-72
2022/12/19 03:57:35;;;;;;;30.65;18.92;;;2.40;99.90;;;;;;4854769;29;20480;-73
2022/12/19 04:00:19;;;;;;;27.58;17.27;;;2.40;99.90;;;;;;4856169;29;20692;-72
2022/12/19 04:02:49;;;;;;;29.05;17.42;;;2.50;99.90;;;;;;4855779;29;20051;-73
2022/12/19 04:05:22;;;;;;;28.98;18.77;;;2.50;99.90;;;;;;4857043;29;20077;-73
2022/12/19 04:07:51;;;;;;;32.03;20.27;;;2.50;99.90;;;;;;4854942;29;20045;-73
2022/12/19 04:10:21;;;;;;;32.03;20.17;;;2.50;99.90;;;;;;4855094;29;20115;-73
2022/12/19 04:12:52;;;;;;;31.63;19.60;;;2.50;99.90;;;;;;4840392;29;20066;-73
2022/12/19 04:15:22;;;;;;;30.35;18.58;;;2.40;99.90;;;;;;4830207;29;20081;-73
2022/12/19 04:17:56;;;;;;;31.13;19.90;;;2.60;99.90;;;;;;4850201;29;20054;-73
2022/12/19 04:20:26;;;;;;;33.53;18.55;;;2.50;99.90;;;;;;4854427;29;20118;-73
2022/12/19 04:22:55;;;;;;;35.13;20.70;;;2.50;99.90;;;;;;4856813;29;20619;-73
2022/12/19 04:25:28;;;;;;;34.60;21.55;;;2.70;99.90;;;;;;4855718;29;20061;-73
2022/12/19 04:27:58;;;;;;;33.92;21.63;;;2.80;99.90;;;;;;4856330;29;20085;-73
2022/12/19 04:30:24;;;;;;;29.05;19.38;;;2.70;99.90;;;;;;4839136;29;20046;-73
2022/12/19 04:32:50;;;;;;;29.92;19.10;;;2.80;99.90;;;;;;4840467;29;20061;-73
2022/12/19 04:35:17;;;;;;;34.70;20.83;;;2.80;99.90;;;;;;4857900;29;20048;-73
2022/12/19 04:37:43;;;;;;;33.40;21.33;;;2.80;99.90;;;;;;4843341;29;20053;-72
2022/12/19 04:40:09;;;;;;;35.08;21.60;;;2.70;99.90;;;;;;4858519;29;20045;-73
2022/12/19 04:42:35;;;;;;;29.95;20.50;;;2.70;99.90;;;;;;4856438;29;20444;-73
2022/12/19 04:45:02;;;;;;;33.70;21.40;;;2.90;99.90;;;;;;4860113;29;20136;-72
2022/12/19 04:47:27;;;;;;;;;;;2.90;99.90;;;;;;4836325;29;20073;-72
2022/12/19 04:49:53;;;;;;;33.75;21.15;;;2.80;99.90;;;;;;4847045;29;20383;-73
2022/12/19 04:52:18;;;;;;;36.78;22.02;;;2.90;99.90;;;;;;4859169;29;20048;-72
2022/12/19 04:54:44;;;;;;;36.63;22.20;;;3.10;99.90;;;;;;4844354;29;20086;-72
2022/12/19 04:57:11;;;;;;;34.72;21.55;;;3.10;99.90;;;;;;4857980;29;20061;-72
2022/12/19 04:59:37;;;;;;;36.42;22.95;;;3.00;99.90;;;;;;4859692;29;20136;-72
2022/12/19 05:02:03;;;;;;;35.93;23.23;;;2.90;99.90;;;;;;4836661;29;20129;-72
2022/12/19 05:04:29;;;;;;;32.60;22.17;;;3.20;99.90;;;;;;4842797;29;20306;-72
2022/12/19 05:06:54;;;;;;;32.63;21.05;;;2.90;99.90;;;;;;4859839;29;20080;-72
2022/12/19 05:09:20;;;;;;;35.67;22.93;;;3.10;99.90;;;;;;4841637;29;20050;-71
2022/12/19 05:11:46;;;;;;;33.25;21.20;;;2.90;99.90;;;;;;4855772;29;20314;-72
2022/12/19 05:14:11;;;;;;;32.47;21.08;;;2.90;99.90;;;;;;4859342;29;20037;-71
2022/12/19 05:16:37;;;;;;;34.45;22.95;;;3.20;99.90;;;;;;4827652;29;20124;-72
2022/12/19 05:19:03;;;;;;;32.80;21.92;;;3.20;99.90;;;;;;4858987;29;20064;-76
2022/12/19 05:21:28;;;;;;;31.90;20.83;;;3.10;99.90;;;;;;4856588;29;20045;-77
2022/12/19 05:23:54;;;;;;;35.47;22.10;;;3.10;99.90;;;;;;4854636;29;20045;-77
2022/12/19 05:26:20;;;;;;;31.13;21.40;;;3.10;99.90;;;;;;4859944;29;20049;-78
2022/12/19 05:28:46;;;;;;;31.10;21.15;;;3.10;99.90;;;;;;4835152;29;20050;-77
2022/12/19 05:31:18;;;;;;;34.55;21.35;;;3.10;99.90;;;;;;4838465;29;20044;-77
2022/12/19 05:33:45;;;;;;;30.95;19.55;;;3.40;99.90;;;;;;4860788;29;20054;-77
2022/12/19 05:36:12;;;;;;;32.58;20.65;;;3.40;99.90;;;;;;4842755;29;20053;-76
2022/12/19 05:38:38;;;;;;;30.55;19.85;;;3.20;99.90;;;;;;4849360;29;20045;-77
2022/12/19 05:41:17;;;;;;;27.95;19.08;;;3.20;99.90;;;;;;4835529;29;20076;-77
2022/12/19 05:43:44;;;;;;;28.80;19.55;;;3.30;99.90;;;;;;4853371;29;20497;-70
2022/12/19 05:46:10;;;;;;;32.15;20.40;;;3.30;99.90;;;;;;4856658;29;20057;-70
2022/12/19 05:48:36;;;;;;;29.33;19.52;;;3.50;99.90;;;;;;4858483;29;20050;-74
2022/12/19 05:51:02;;;;;;;26.77;16.90;;;3.30;99.90;;;;;;4838789;29;20049;-71
2022/12/19 05:53:28;;;;;;;26.15;18.05;;;3.40;99.90;;;;;;4836316;29;20052;-71
2022/12/19 05:56:07;;;;;;;26.70;18.17;;;3.40;99.90;;;;;;4808981;29;20042;-71
2022/12/19 05:58:33;;;;;;;24.65;16.33;;;3.40;99.90;;;;;;4846523;29;20166;-71
2022/12/19 06:01:07;;;;;;;28.45;17.98;;;3.70;99.90;;;;;;4858111;29;20157;-71
2022/12/19 06:03:33;;;;;;;23.63;16.92;;;3.80;99.90;;;;;;4848205;29;20105;-71
2022/12/19 06:06:10;;;;;;;26.55;17.85;;;3.40;99.90;;;;;;4836313;29;20045;-72
2022/12/19 06:08:36;;;;;;;23.02;16.40;;;3.70;99.90;;;;;;4848181;29;20044;-71
2022/12/19 06:11:03;;;;;;;23.90;16.45;;;3.80;99.90;;;;;;4875597;29;20057;-71
2022/12/19 06:13:30;;;;;;;24.70;16.40;;;3.80;99.90;;;;;;4834243;29;20098;-71
2022/12/19 06:16:00;;;;;;;;;;;3.50;99.90;;;;;;4855375;29;20409;-71
2022/12/19 06:18:27;;;;;;;21.67;14.70;;;3.70;99.90;;;;;;4856060;29;19931;-71
2022/12/19 06:20:57;;;;;;;22.52;15.13;;;3.70;99.90;;;;;;4834689;29;20050;-70
2022/12/19 06:23:23;;;;;;;20.15;14.60;;;3.60;99.90;;;;;;4846043;29;20040;-70
2022/12/19 06:25:49;;;;;;;18.33;13.38;;;3.70;99.90;;;;;;4842273;29;20050;-70
2022/12/19 06:28:14;;;;;;;18.75;13.63;;;3.80;99.90;;;;;;4858678;29;20060;-70
2022/12/19 06:30:40;;;;;;;18.85;13.30;;;3.50;99.90;;;;;;4859333;29;20049;-70
2022/12/19 06:33:06;;;;;;;19.83;13.93;;;3.60;99.90;;;;;;4856906;29;20061;-70
2022/12/19 06:35:31;;;;;;;19.42;13.40;;;4.00;99.90;;;;;;4828414;29;20045;-70
2022/12/19 06:37:57;;;;;;;23.40;14.95;;;3.70;99.90;;;;;;4833858;29;20077;-71
2022/12/19 06:43:06;;;;;;;18.45;12.82;;;4.10;99.90;;;;;;4854833;29;20313;-71
2022/12/19 06:45:32;;;;;;;18.40;12.90;;;4.10;99.90;;;;;;4837542;29;20045;-71
2022/12/19 06:47:58;;;;;;;19.50;13.47;;;4.30;99.90;;;;;;4850915;29;20393;-71
2022/12/19 06:50:24;;;;;;;16.23;11.70;;;4.20;99.90;;;;;;4856175;29;20384;-72
2022/12/19 06:52:50;;;;;;;17.92;11.75;;;4.10;99.90;;;;;;4853210;29;20187;-71
2022/12/19 06:55:16;;;;;;;16.00;12.10;;;4.50;99.90;;;;;;4835561;29;20140;-71
2022/12/19 06:57:44;;;;;;;14.82;10.98;;;4.60;99.90;;;;;;4852985;29;20057;-70
2022/12/19 07:00:14;;;;;;;14.48;10.80;;;4.20;99.90;;;;;;4848445;29;20053;-71
2022/12/19 07:02:44;;;;;;;15.55;11.60;;;4.60;99.90;;;;;;4857464;29;20045;-70
2022/12/19 07:05:11;;;;;;;14.52;10.60;;;4.30;99.90;;;;;;4853382;29;20121;-70
2022/12/19 07:07:37;;;;;;;15.70;10.38;;;4.60;99.90;;;;;;4851762;29;20061;-70
2022/12/19 07:10:04;;;;;;;13.95;10.45;;;4.70;99.90;;;;;;4848531;29;20106;-70
2022/12/19 07:12:30;;;;;;;13.15;10.13;;;4.20;99.90;;;;;;4857926;29;20049;-70
2022/12/19 07:14:56;;;;;;;13.25;9.55;;;4.30;99.90;;;;;;4853091;29;20045;-70
2022/12/19 07:17:24;;;;;;;12.57;9.50;;;4.50;99.90;;;;;;4856204;29;20399;-70
2022/12/19 07:19:53;;;;;;;12.98;9.70;;;4.30;99.90;;;;;;4854881;29;20120;-70
2022/12/19 07:22:19;;;;;;;12.40;9.52;;;4.10;99.90;;;;;;4849382;29;20486;-71
2022/12/19 07:24:45;;;;;;;13.23;9.82;;;4.70;99.90;;;;;;4854590;29;20125;-70
2022/12/19 07:27:11;;;;;;;13.98;10.63;;;4.10;99.90;;;;;;4851989;29;20124;-71
2022/12/19 07:29:36;;;;;;;13.43;9.45;;;4.70;99.90;;;;;;4851483;29;20085;-70
2022/12/19 07:32:02;;;;;;;13.98;9.90;;;4.20;99.90;;;;;;4848903;29;20095;-70
2022/12/19 07:34:28;;;;;;;12.38;9.55;;;4.20;99.90;;;;;;4842034;29;20049;-70
2022/12/19 07:36:54;;;;;;;;;;;4.20;99.90;;;;;;4848589;29;20041;-70
2022/12/19 07:39:20;;;;;;;13.13;9.88;;;4.20;99.90;;;;;;4845832;29;21041;-72
2022/12/19 07:41:46;;;;;;;11.98;9.48;;;4.40;99.90;;;;;;4844942;29;20507;-70
2022/12/19 07:44:14;;;;;;;12.30;9.68;;;4.50;99.90;;;;;;4847733;29;20078;-70
2022/12/19 07:46:40;;;;;;;12.88;9.48;;;4.20;99.90;;;;;;4847662;29;20437;-70
2022/12/19 07:49:06;;;;;;;12.05;9.45;;;4.90;99.90;;;;;;4835519;29;20205;-70
2022/12/19 07:51:32;;;;;;;10.75;8.50;;;5.00;99.90;;;;;;4846654;29;20056;-70
2022/12/19 07:53:58;;;;;;;11.45;8.88;;;4.30;99.90;;;;;;4845369;29;20042;-71
2022/12/19 07:56:24;;;;;;;10.80;8.65;;;4.80;99.90;;;;;;4840245;29;20107;-71
2022/12/19 07:58:50;;;;;;;10.82;8.10;;;5.10;99.90;;;;;;4846555;29;20060;-70
2022/12/19 08:01:16;;;;;;;10.75;8.68;;;4.60;99.90;;;;;;4838820;29;20046;-71
2022/12/19 08:03:42;;;;;;;11.48;8.98;;;5.10;99.90;;;;;;4835951;29;20046;-71
2022/12/19 08:06:08;;;;;;;11.45;8.57;;;4.30;99.90;;;;;;4850290;29;20044;-71
2022/12/19 08:08:36;;;;;;;;;;;4.40;99.90;;;;;;4847326;29;20052;-71
2022/12/19 08:11:09;;;;;;;;;;;5.00;99.90;;;;;;4847737;29;20434;-71
2022/12/19 08:13:35;;;;;;;11.45;8.85;;;4.40;99.90;;;;;;4855904;29;19921;-71
2022/12/19 08:16:02;;;;;;;10.82;8.18;;;4.20;99.90;;;;;;4855984;29;20078;-71
2022/12/19 08:18:27;;;;;;;11.07;8.88;;;4.30;99.90;;;;;;4848260;29;20060;-70
2022/12/19 08:20:53;;;;;;;9.93;7.90;;;5.20;99.90;;;;;;4849203;29;20136;-70
2022/12/19 08:23:19;;;;;;;8.63;6.90;;;5.00;99.90;;;;;;4851561;29;20175;-70
2022/12/19 08:25:44;;;;;;;10.05;8.07;;;5.00;99.90;;;;;;4850608;29;20050;-70
2022/12/19 08:28:10;;;;;;;10.70;8.48;;;5.50;99.90;;;;;;4836632;29;20050;-70
2022/12/19 08:30:40;;;;;;;10.65;8.60;;;4.30;99.90;;;;;;4854784;29;20054;-70
2022/12/19 08:33:06;;;;;;;10.63;8.35;;;4.80;99.90;;;;;;4851175;29;20164;-70
2022/12/19 08:35:32;;;;;;;;;;;5.10;99.90;;;;;;4840889;29;20045;-70
2022/12/19 08:37:58;;;;;;;10.88;8.60;;;5.50;99.90;;;;;;4849722;29;20291;-70
2022/12/19 08:40:24;;;;;;;9.40;8.10;;;5.60;99.90;;;;;;4850757;29;20121;-70
2022/12/19 08:42:50;;;;;;;9.57;7.57;;;4.50;99.90;;;;;;4851564;29;20049;-70
2022/12/19 08:45:18;;;;;;;8.70;7.13;;;4.80;99.90;;;;;;4852726;29;20046;-70
2022/12/19 08:47:44;;;;;;;8.30;6.90;;;5.40;99.90;;;;;;4837777;29;20049;-70
2022/12/19 08:50:11;;;;;;;7.57;6.35;;;4.40;99.90;;;;;;4846536;29;20056;-70
2022/12/19 08:52:36;;;;;;;;;;;4.60;99.90;;;;;;4848554;29;20046;-70
2022/12/19 08:55:03;;;;;;;9.98;7.28;;;5.50;99.90;;;;;;4845040;29;19964;-70
2022/12/19 08:57:29;;;;;;;8.27;7.20;;;4.80;99.90;;;;;;4848345;29;20056;-70
2022/12/19 08:59:54;;;;;;;7.78;6.82;;;4.70;99.90;;;;;;4849447;29;20053;-70
2022/12/19 09:02:20;;;;;;;7.97;7.10;;;5.60;99.90;;;;;;4841872;29;20136;-70
2022/12/19 09:04:46;;;;;;;8.77;7.22;;;4.80;99.90;;;;;;4838955;29;20053;-70
2022/12/19 09:07:12;;;;;;;9.65;7.55;;;5.10;99.90;;;;;;4866728;29;20581;-68
2022/12/19 09:09:38;;;;;;;8.68;7.13;;;6.10;99.90;;;;;;4851522;29;20059;-70
2022/12/19 09:12:03;;;;;;;8.60;7.53;;;6.00;99.90;;;;;;4836649;29;20041;-70
2022/12/19 09:14:35;;;;;;;8.25;7.38;;;5.90;99.90;;;;;;4848491;29;20034;-70
2022/12/19 09:17:01;;;;;;;9.13;8.00;;;6.10;99.90;;;;;;4847557;29;20103;-70
2022/12/19 09:19:27;;;;;;;8.95;7.70;;;5.00;99.90;;;;;;4845066;29;20049;-70
2022/12/19 09:21:52;;;;;;;9.45;8.18;;;6.20;99.90;;;;;;4848652;29;20114;-70
2022/12/19 09:24:19;;;;;;;9.68;8.18;;;6.20;99.90;;;;;;4844697;29;20481;-70
2022/12/19 09:26:45;;;;;;;7.00;6.30;;;5.50;99.90;;;;;;4833500;29;20109;-70
2022/12/19 09:29:10;;;;;;;8.45;7.50;;;6.10;99.90;;;;;;4844583;29;20121;-70
2022/12/19 09:31:36;;;;;;;8.55;7.20;;;5.00;99.90;;;;;;4836862;29;20045;-70
2022/12/19 09:34:02;;;;;;;8.35;7.45;;;6.10;99.90;;;;;;4836419;29;20060;-70
2022/12/19 09:36:28;;;;;;;8.27;7.18;;;6.30;99.90;;;;;;4823152;29;20045;-71
2022/12/19 09:38:56;;;;;;;8.35;7.30;;;6.20;99.90;;;;;;4847596;29;20060;-70
2022/12/19 09:41:34;;;;;;;7.93;7.13;;;5.30;99.90;;;;;;4847864;29;20391;-70
2022/12/19 09:44:18;;;;;;;9.25;7.85;;;6.40;99.90;;;;;;4849887;29;20046;-69
2022/12/19 09:46:55;;;;;;;8.23;7.20;;;5.20;99.90;;;;;;4857533;29;20132;-70
2022/12/19 09:49:24;;;;;;;9.48;7.75;;;5.30;99.90;;;;;;4847729;29;20566;-70
2022/12/19 09:51:57;;;;;;;7.00;6.30;;;6.50;99.90;;;;;;4846341;29;20129;-70
2022/12/19 09:54:35;;;;;;;9.30;7.63;;;6.20;99.90;;;;;;4836045;29;20049;-70
2022/12/19 09:57:05;;;;;;;8.98;7.70;;;5.70;99.90;;;;;;4845703;29;20493;-69
2022/12/19 09:59:47;;;;;;;8.35;7.22;;;6.80;99.90;;;;;;4834609;29;20053;-69
2022/12/19 10:02:24;;;;;;;9.77;7.00;;;6.80;99.90;;;;;;4845275;29;20549;-69
2022/12/19 10:05:06;;;;;;;8.77;7.40;;;5.80;99.90;;;;;;4847939;29;20083;-70
2022/12/19 10:07:31;;;;;;;8.55;7.65;;;6.70;99.90;;;;;;4845710;29;20057;-70
2022/12/19 10:09:57;;;;;;;7.93;7.13;;;6.20;99.90;;;;;;4846457;29;20140;-69
2022/12/19 10:12:46;;;;;;;8.35;7.43;;;7.20;99.90;;;;;;4847158;29;20071;-69
2022/12/19 10:15:36;;;;;;;8.82;7.82;;;7.00;99.90;;;;;;4834080;29;20060;-69
2022/12/19 10:18:25;;;;;;;8.75;7.80;;;7.10;99.90;;;;;;4848811;29;20053;-69
2022/12/19 10:21:24;;;;;;;8.02;7.15;;;7.30;99.90;;;;;;4853645;29;20049;-70
2022/12/19 10:24:14;;;;;;;7.93;6.72;;;6.70;99.90;;;;;;4845890;29;20568;-70
2022/12/19 10:26:48;;;;;;;7.82;7.03;;;5.90;99.90;;;;;;4854818;29;20042;-70
2022/12/19 10:29:23;;;;;;;8.50;7.60;;;6.10;99.90;;;;;;4855136;29;20052;-69
2022/12/19 10:32:03;;;;;;;8.40;7.13;;;7.50;99.90;;;;;;4850557;29;20159;-69
2022/12/19 10:34:49;;;;;;;8.95;7.80;;;6.30;99.90;;;;;;4852655;29;20045;-70
2022/12/19 10:37:30;;;;;;;8.35;7.32;;;7.80;99.90;;;;;;4855609;29;20065;-69
2022/12/19 10:40:05;;;;;;;8.55;7.47;;;6.20;99.90;;;;;;4855453;29;20038;-70
2022/12/19 10:42:58;;;;;;;7.97;6.93;;;6.90;99.90;;;;;;4854138;29;20140;-69
2022/12/19 10:45:31;;;;;;;8.68;7.70;;;7.60;99.90;;;;;;4840686;29;20046;-70
2022/12/19 10:47:57;;;;;;;7.45;6.13;;;7.90;99.90;;;;;;4854333;29;20057;-70
2022/12/19 10:50:26;;;;;;;8.15;7.05;;;7.80;99.90;;;;;;4835582;29;20045;-69
2022/12/19 10:53:07;;;;;;;8.32;7.45;;;6.70;99.90;;;;;;4854194;29;20097;-70
2022/12/19 10:55:43;;;;;;;8.38;7.03;;;6.70;99.90;;;;;;4855336;29;20041;-69
2022/12/19 10:58:15;;;;;;;7.97;6.80;;;6.60;99.90;;;;;;4834476;29;20140;-70
2022/12/19 11:00:59;;;;;;;8.05;7.00;;;6.40;99.90;;;;;;4835777;29;20053;-69
2022/12/19 11:03:25;;;;;;;8.73;7.57;;;7.00;99.90;;;;;;4829641;29;20380;-69
2022/12/19 11:05:55;;;;;;;8.10;6.65;;;6.40;99.90;;;;;;4851128;29;20144;-69
2022/12/19 11:08:26;;;;;;;8.85;7.70;;;7.80;99.90;;;;;;4856652;29;20064;-70
2022/12/19 11:10:55;;;;;;;9.15;7.70;;;6.60;99.90;;;;;;4850911;29;20430;-69
2022/12/19 11:13:28;;;;;;;8.57;7.35;;;6.70;99.90;;;;;;4854286;29;20045;-69
2022/12/19 11:15:58;;;;;;;8.45;7.15;;;7.30;99.90;;;;;;4853441;29;20128;-69
2022/12/19 11:18:40;;;;;;;8.65;7.03;;;6.70;99.90;;;;;;4849998;29;20509;-70
2022/12/19 11:21:12;;;;;;;7.57;6.53;;;6.60;99.90;;;;;;4847266;29;20055;-70
2022/12/19 11:23:53;;;;;;;7.65;6.88;;;7.10;99.90;;;;;;4854669;29;20506;-70
2022/12/19 11:26:33;;;;;;;7.07;6.18;;;7.10;99.90;;;;;;4864119;29;20053;-70
2022/12/19 11:29:03;;;;;;;7.97;6.80;;;6.90;99.90;;;;;;4849136;29;20057;-70
2022/12/19 11:31:30;;;;;;;7.93;7.07;;;6.90;99.90;;;;;;4854975;29;20056;-70
2022/12/19 11:34:06;;;;;;;;;;;8.00;99.90;;;;;;4853785;29;20049;-70
2022/12/19 11:36:54;;;;;;;8.68;6.45;;;8.00;99.90;;;;;;4852743;29;19924;-70
2022/12/19 11:39:34;;;;;;;7.22;6.22;;;8.10;99.90;;;;;;4843629;29;20132;-70
2022/12/19 11:42:20;;;;;;;7.65;6.63;;;8.60;99.90;;;;;;4854182;29;20038;-70
2022/12/19 11:44:55;;;;;;;7.85;6.20;;;8.50;99.90;;;;;;4852975;29;20561;-70
2022/12/19 11:47:46;;;;;;;7.88;6.50;;;7.80;99.90;;;;;;4858048;29;20493;-70
2022/12/19 11:50:19;;;;;;;9.48;6.25;;;8.70;99.90;;;;;;4855583;29;20041;-69
2022/12/19 11:53:10;;;;;;;6.60;5.90;;;7.40;99.90;;;;;;4857123;29;20053;-70
2022/12/19 11:55:53;;;;;;;8.63;6.88;;;8.80;99.90;;;;;;4840173;29;20507;-70
2022/12/19 11:58:21;;;;;;;8.07;6.63;;;8.50;99.90;;;;;;4845598;29;20057;-70
2022/12/19 12:01:15;;;;;;;7.45;6.30;;;8.10;99.90;;;;;;4836055;29;20045;-70
2022/12/19 12:04:30;;;;;;;7.43;6.20;;;8.70;99.90;;;;;;4827562;29;20125;-70
2022/12/19 12:06:56;;;;;;;10.38;6.72;;;7.60;99.90;;;;;;4853009;29;20066;-70
2022/12/19 12:09:49;;;;;;;9.02;6.55;;;8.20;99.90;;;;;;4853097;29;20470;-70
2022/12/19 12:12:14;;;;;;;7.05;6.22;;;7.80;99.90;;;;;;4855314;29;20052;-70
2022/12/19 12:15:13;;;;;;;9.65;6.00;;;9.00;99.90;;;;;;4853066;29;20049;-71
2022/12/19 12:17:51;;;;;;;7.35;6.13;;;7.70;99.90;;;;;;4852678;29;20049;-70
2022/12/19 12:20:30;;;;;;;6.55;5.82;;;8.90;99.90;;;;;;4853460;29;20166;-69
2022/12/19 12:23:28;;;;;;;8.52;6.57;;;8.40;99.90;;;;;;4855850;29;20046;-70
2022/12/19 12:26:14;;;;;;;6.90;5.80;;;8.20;99.90;;;;;;4851291;29;20045;-70
2022/12/19 12:29:10;;;;;;;8.38;6.32;;;8.60;99.90;;;;;;4860700;29;20137;-70
2022/12/19 12:31:48;;;;;;;7.82;5.95;;;8.10;99.90;;;;;;4859860;29;20053;-70
2022/12/19 12:34:22;;;;;;;7.57;5.68;;;8.00;99.90;;;;;;4863958;29;20053;-70
2022/12/19 12:36:55;;;;;;;8.07;6.28;;;8.60;99.90;;;;;;4861599;29;20466;-70
2022/12/19 12:39:55;;;;;;;7.68;6.40;;;8.90;99.90;;;;;;4870259;29;20053;-70
2022/12/19 12:42:36;;;;;;;7.82;5.78;;;8.00;99.90;;;;;;4857614;29;20068;-69
2022/12/19 12:45:34;;;;;;;8.18;6.13;;;8.80;99.90;;;;;;4866455;29;20053;-70
2022/12/19 12:48:00;;;;;;;6.93;5.35;;;9.20;99.90;;;;;;4863142;29;20140;-69
2022/12/19 12:50:26;;;;;;;6.68;5.97;;;9.20;99.90;;;;;;4867434;29;20140;-69
2022/12/19 12:52:53;;;;;;;;;;;9.10;99.90;;;;;;4871020;29;20054;-69
2022/12/19 12:55:33;;;;;;;7.80;5.70;;;9.00;99.90;;;;;;4836429;29;20376;-69
2022/12/19 12:57:59;;;;;;;6.32;5.53;;;8.30;99.90;;;;;;4859228;29;20102;-69
2022/12/19 13:00:28;;;;;;;7.47;5.95;;;8.10;99.90;;;;;;4850073;29;20045;-69
2022/12/19 13:02:56;;;;;;;6.35;5.38;;;8.80;99.90;;;;;;4862622;29;20053;-70
2022/12/19 13:05:34;;;;;;;7.68;5.70;;;9.20;99.90;;;;;;4865630;29;20086;-69
2022/12/19 13:08:01;;;;;;;7.78;5.82;;;8.10;99.90;;;;;;4858979;29;20049;-69
2022/12/19 13:10:30;;;;;;;8.10;5.97;;;8.80;99.90;;;;;;4838339;29;20501;-69
2022/12/19 13:13:08;;;;;;;8.75;6.03;;;9.30;99.90;;;;;;4857841;29;20041;-69
2022/12/19 13:15:47;;;;;;;8.05;5.65;;;8.20;99.90;;;;;;4865816;29;20088;-70